createdAt,value
2018-12-13T00:00:32.189Z,3.21
2018-12-13T00:01:46.827Z,3.13
2018-12-13T00:02:32.228Z,3.21
2018-12-13T00:03:32.296Z,3.24
2018-12-13T00:04:32.207Z,3.13
2018-12-13T00:05:32.215Z,3.11
2018-12-13T00:06:38.172Z,3.17
2018-12-13T00:07:32.243Z,3.17
2018-12-13T00:08:32.307Z,3.24
2018-12-13T00:09:32.269Z,3.2
2018-12-13T00:10:32.284Z,3.15
2018-12-13T00:11:46.964Z,3.17
2018-12-13T00:13:32.328Z,3.23
2018-12-13T00:14:32.338Z,3.23
2018-12-13T00:15:47.013Z,3.2
2018-12-13T00:16:32.819Z,3.23
2018-12-13T00:17:47.040Z,3.15
2018-12-13T00:18:32.404Z,3.2
2018-12-13T00:19:32.404Z,3.13
2018-12-13T00:20:32.421Z,3.23
2018-12-13T00:21:32.434Z,3.18
2018-12-13T00:22:32.443Z,3.1
2018-12-13T00:23:32.459Z,3.15
2018-12-13T00:24:32.475Z,3.17
2018-12-13T00:25:32.597Z,3.08
2018-12-13T00:26:32.508Z,3.14
2018-12-13T00:27:47.177Z,3.17
2018-12-13T00:28:32.532Z,3.17
2018-12-13T00:29:32.538Z,3.08
2018-12-13T00:30:47.213Z,3.21
2018-12-13T00:31:32.567Z,3.13
2018-12-13T00:32:32.577Z,3.08
2018-12-13T00:33:47.254Z,3.21
2018-12-13T00:34:32.604Z,3.06
2018-12-13T00:35:32.633Z,3.06
2018-12-13T00:36:32.633Z,3.14
2018-12-13T00:38:32.671Z,3.11
2018-12-13T00:40:32.686Z,3.2
2018-12-13T00:41:32.702Z,3.2
2018-12-13T00:42:32.817Z,3.21
2018-12-13T00:43:32.723Z,3.21
2018-12-13T00:44:32.737Z,3.13
2018-12-13T00:45:32.748Z,3.13
2018-12-13T00:46:32.768Z,3.2
2018-12-13T00:47:32.776Z,3.23
2018-12-13T00:48:32.794Z,3.17
2018-12-13T00:49:47.518Z,3.29
2018-12-13T00:50:32.815Z,3.29
2018-12-13T00:51:32.829Z,3.26
2018-12-13T00:52:32.846Z,3.17
2018-12-13T00:53:32.862Z,3.17
2018-12-13T00:54:32.919Z,3.18
2018-12-13T00:55:32.935Z,3.2
2018-12-13T00:56:32.897Z,3.21
2018-12-13T00:57:32.915Z,3.23
2018-12-13T00:58:32.925Z,3.15
2018-12-13T01:00:33.012Z,3.17
2018-12-13T01:01:32.962Z,3.18
2018-12-13T01:02:32.977Z,3.23
2018-12-13T01:03:33.068Z,3.21
2018-12-13T01:04:47.665Z,3.23
2018-12-13T01:05:33.018Z,3.17
2018-12-13T01:06:33.032Z,3.18
2018-12-13T01:07:33.042Z,3.21
2018-12-13T01:08:33.056Z,3.2
2018-12-13T01:09:33.075Z,3.24
2018-12-13T01:10:33.085Z,3.35
2018-12-13T01:11:33.096Z,3.36
2018-12-13T01:12:33.115Z,3.42
2018-12-13T01:13:33.126Z,3.42
2018-12-13T01:14:47.803Z,3.48
2018-12-13T01:15:33.149Z,3.33
2018-12-13T01:16:33.164Z,3.33
2018-12-13T01:17:33.182Z,3.4
2018-12-13T01:18:33.191Z,3.36
2018-12-13T01:19:33.211Z,3.32
2018-12-13T01:20:33.219Z,3.36
2018-12-13T01:21:33.233Z,3.28
2018-12-13T01:22:33.244Z,3.31
2018-12-13T01:23:33.257Z,3.39
2018-12-13T01:24:33.271Z,3.45
2018-12-13T01:25:33.286Z,3.33
2018-12-13T01:26:33.297Z,3.33
2018-12-13T01:27:33.413Z,3.39
2018-12-13T01:29:33.337Z,3.31
2018-12-13T01:30:33.353Z,3.32
2018-12-13T01:31:48.033Z,3.29
2018-12-13T01:32:33.381Z,3.33
2018-12-13T01:33:48.053Z,3.24
2018-12-13T01:34:33.407Z,3.48
2018-12-13T01:35:33.419Z,3.35
2018-12-13T01:36:52.340Z,3.45
2018-12-13T01:37:33.451Z,3.47
2018-12-13T01:38:33.510Z,3.47
2018-12-13T01:39:33.480Z,3.39
2018-12-13T01:40:33.489Z,3.36
2018-12-13T01:41:33.501Z,3.48
2018-12-13T01:42:33.518Z,3.58
2018-12-13T01:44:33.543Z,3.62
2018-12-13T01:45:33.564Z,3.6
2018-12-13T01:46:33.569Z,3.6
2018-12-13T01:47:48.244Z,3.54
2018-12-13T01:48:33.593Z,3.58
2018-12-13T01:49:48.269Z,3.54
2018-12-13T01:50:33.620Z,3.51
2018-12-13T01:51:33.634Z,3.45
2018-12-13T01:52:48.311Z,3.52
2018-12-13T01:53:33.659Z,3.47
2018-12-13T01:54:33.673Z,3.55
2018-12-13T01:55:33.692Z,3.5
2018-12-13T01:56:33.701Z,3.42
2018-12-13T01:57:33.720Z,3.47
2018-12-13T02:00:33.759Z,3.48
2018-12-13T02:01:33.778Z,3.54
2018-12-13T02:03:48.460Z,3.45
2018-12-13T02:04:33.814Z,3.47
2018-12-13T02:05:33.827Z,3.33
2018-12-13T02:06:33.838Z,3.5
2018-12-13T02:07:33.856Z,3.51
2018-12-13T02:08:48.532Z,3.51
2018-12-13T02:09:33.928Z,3.39
2018-12-13T02:10:33.897Z,3.42
2018-12-13T02:11:33.914Z,3.51
2018-12-13T02:12:33.917Z,3.43
2018-12-13T02:14:33.958Z,3.48
2018-12-13T02:15:33.962Z,3.62
2018-12-13T02:17:33.988Z,3.47
2018-12-13T02:18:48.664Z,3.61
2018-12-13T02:19:34.031Z,3.61
2018-12-13T02:20:34.026Z,3.54
2018-12-13T02:21:34.044Z,3.6
2018-12-13T02:22:34.118Z,3.6
2018-12-13T02:23:34.074Z,3.54
2018-12-13T02:24:48.746Z,3.58
2018-12-13T02:25:34.100Z,3.6
2018-12-13T02:26:34.119Z,3.51
2018-12-13T02:27:34.124Z,3.47
2018-12-13T02:29:34.199Z,3.36
2018-12-13T02:30:34.180Z,3.28
2018-12-13T02:31:34.189Z,3.32
2018-12-13T02:32:34.189Z,3.33
2018-12-13T02:33:34.204Z,3.32
2018-12-13T02:34:34.223Z,3.47
2018-12-13T02:35:34.234Z,3.33
2018-12-13T02:36:34.253Z,3.33
2018-12-13T02:37:48.919Z,3.35
2018-12-13T02:38:34.271Z,3.47
2018-12-13T02:39:48.948Z,3.35
2018-12-13T02:40:34.297Z,3.35
2018-12-13T02:41:34.321Z,3.36
2018-12-13T02:42:34.330Z,3.47
2018-12-13T02:43:49.009Z,3.4
2018-12-13T02:45:34.364Z,3.45
2018-12-13T02:47:34.560Z,3.55
2018-12-13T02:48:34.407Z,3.51
2018-12-13T02:49:34.423Z,3.48
2018-12-13T02:50:34.441Z,3.54
2018-12-13T02:51:49.110Z,3.52
2018-12-13T02:52:34.460Z,3.57
2018-12-13T02:53:34.476Z,3.51
2018-12-13T02:54:34.490Z,3.6
2018-12-13T02:55:34.506Z,3.5
2018-12-13T02:56:34.512Z,3.51
2018-12-13T02:57:34.636Z,3.52
2018-12-13T02:58:34.543Z,3.52
2018-12-13T02:59:34.604Z,3.51
2018-12-13T03:00:34.576Z,3.48
2018-12-13T03:01:34.586Z,3.52
2018-12-13T03:02:34.355Z,3.47
2018-12-13T03:03:34.619Z,3.6
2018-12-13T03:04:34.393Z,3.52
2018-12-13T03:05:34.638Z,3.54
2018-12-13T03:06:49.314Z,3.5
2018-12-13T03:07:34.665Z,3.51
2018-12-13T03:08:34.689Z,3.55
2018-12-13T03:09:34.695Z,3.45
2018-12-13T03:10:34.707Z,3.52
2018-12-13T03:11:49.431Z,3.51
2018-12-13T03:12:34.741Z,3.58
2018-12-13T03:13:34.835Z,3.62
2018-12-13T03:14:34.769Z,3.5
2018-12-13T03:15:34.782Z,3.48
2018-12-13T03:17:34.855Z,3.62
2018-12-13T03:18:34.827Z,3.55
2018-12-13T03:19:34.881Z,3.62
2018-12-13T03:20:34.842Z,3.57
2018-12-13T03:21:34.856Z,3.5
2018-12-13T03:22:34.621Z,3.42
2018-12-13T03:23:49.544Z,3.47
2018-12-13T03:24:34.899Z,3.45
2018-12-13T03:25:34.944Z,3.45
2018-12-13T03:26:34.927Z,3.5
2018-12-13T03:27:49.610Z,3.52
2018-12-13T03:28:35.047Z,3.55
2018-12-13T03:29:34.964Z,3.36
2018-12-13T03:30:34.990Z,3.5
2018-12-13T03:31:35.100Z,3.32
2018-12-13T03:32:35.035Z,3.48
2018-12-13T03:33:49.683Z,3.5
2018-12-13T03:34:49.698Z,3.5
2018-12-13T03:35:35.050Z,3.48
2018-12-13T03:36:35.058Z,3.33
2018-12-13T03:37:35.080Z,3.5
2018-12-13T03:38:35.088Z,3.42
2018-12-13T03:39:35.101Z,3.36
2018-12-13T03:40:35.216Z,3.35
2018-12-13T03:41:35.143Z,3.48
2018-12-13T03:42:35.150Z,3.48
2018-12-13T03:43:49.818Z,3.48
2018-12-13T03:44:35.171Z,3.52
2018-12-13T03:45:35.193Z,3.5
2018-12-13T03:46:35.219Z,3.4
2018-12-13T03:47:35.256Z,3.35
2018-12-13T03:48:35.221Z,3.48
2018-12-13T03:49:35.236Z,3.51
2018-12-13T03:50:35.297Z,3.48
2018-12-13T03:51:35.265Z,3.42
2018-12-13T03:52:35.344Z,3.51
2018-12-13T03:53:35.338Z,3.5
2018-12-13T03:54:35.308Z,3.5
2018-12-13T03:55:35.068Z,3.52
2018-12-13T03:56:49.989Z,3.47
2018-12-13T03:57:35.343Z,3.52
2018-12-13T03:58:35.352Z,3.55
2018-12-13T03:59:50.033Z,3.65
2018-12-13T04:00:50.060Z,3.58
2018-12-13T04:01:35.413Z,3.48
2018-12-13T04:02:35.426Z,3.42
2018-12-13T04:03:35.436Z,3.43
2018-12-13T04:04:35.443Z,3.31
2018-12-13T04:05:35.457Z,3.36
2018-12-13T04:07:35.484Z,3.29
2018-12-13T04:08:35.620Z,3.33
2018-12-13T04:09:35.560Z,3.45
2018-12-13T04:10:35.521Z,3.32
2018-12-13T04:11:35.533Z,3.29
2018-12-13T04:12:35.546Z,3.33
2018-12-13T04:13:35.573Z,3.33
2018-12-13T04:14:50.283Z,3.31
2018-12-13T04:15:35.627Z,3.42
2018-12-13T04:16:35.598Z,3.36
2018-12-13T04:17:35.620Z,3.51
2018-12-13T04:18:35.636Z,3.31
2018-12-13T04:19:35.651Z,3.35
2018-12-13T04:20:35.667Z,3.31
2018-12-13T04:21:35.675Z,3.33
2018-12-13T04:22:35.681Z,3.35
2018-12-13T04:23:35.793Z,3.36
2018-12-13T04:24:35.710Z,3.39
2018-12-13T04:25:35.722Z,3.43
2018-12-13T04:26:50.416Z,3.33
2018-12-13T04:27:35.747Z,3.42
2018-12-13T04:28:35.771Z,3.45
2018-12-13T04:29:35.773Z,3.5
2018-12-13T04:30:35.840Z,3.45
2018-12-13T04:32:35.821Z,3.31
2018-12-13T04:33:35.830Z,3.35
2018-12-13T04:34:35.844Z,3.31
2018-12-13T04:35:35.905Z,3.24
2018-12-13T04:37:40.082Z,3.28
2018-12-13T04:38:35.906Z,3.33
2018-12-13T04:39:35.972Z,3.35
2018-12-13T04:40:35.923Z,3.33
2018-12-13T04:41:35.939Z,3.36
2018-12-13T04:42:50.613Z,3.42
2018-12-13T04:43:35.966Z,3.39
2018-12-13T04:44:35.980Z,3.42
2018-12-13T04:45:35.995Z,3.35
2018-12-13T04:46:50.669Z,3.45
2018-12-13T04:47:36.018Z,3.45
2018-12-13T04:48:36.037Z,3.47
2018-12-13T04:50:36.059Z,3.32
2018-12-13T04:51:36.088Z,3.32
2018-12-13T04:53:36.106Z,3.39
2018-12-13T04:54:36.110Z,3.23
2018-12-13T04:55:36.131Z,3.26
2018-12-13T04:57:36.150Z,3.28
2018-12-13T04:58:50.828Z,3.32
2018-12-13T04:59:36.179Z,3.35
2018-12-13T05:00:50.954Z,3.32
2018-12-13T05:01:36.212Z,3.32
2018-12-13T05:02:50.887Z,3.33
2018-12-13T05:03:36.232Z,3.29
2018-12-13T05:04:36.246Z,3.36
2018-12-13T05:05:36.256Z,3.33
2018-12-13T05:06:36.275Z,3.4
2018-12-13T05:07:41.681Z,3.47
2018-12-13T05:08:36.346Z,3.43
2018-12-13T05:09:36.312Z,3.39
2018-12-13T05:10:36.326Z,3.43
2018-12-13T05:12:36.349Z,3.45
2018-12-13T05:13:36.376Z,3.57
2018-12-13T05:14:51.042Z,3.65
2018-12-13T05:15:36.393Z,3.55
2018-12-13T05:16:36.410Z,3.55
2018-12-13T05:17:36.424Z,3.47
2018-12-13T05:18:51.246Z,3.42
2018-12-13T05:19:36.447Z,3.43
2018-12-13T05:20:36.467Z,3.47
2018-12-13T05:21:36.235Z,3.47
2018-12-13T05:22:36.490Z,3.42
2018-12-13T05:23:36.507Z,3.33
2018-12-13T05:24:36.576Z,3.36
2018-12-13T05:27:36.557Z,3.5
2018-12-13T05:28:36.579Z,3.55
2018-12-13T05:29:36.684Z,3.42
2018-12-13T05:30:51.265Z,3.47
2018-12-13T05:31:51.271Z,3.47
2018-12-13T05:32:36.626Z,3.57
2018-12-13T05:33:36.687Z,3.6
2018-12-13T05:34:51.313Z,3.57
2018-12-13T05:35:36.664Z,3.6
2018-12-13T05:36:36.689Z,3.57
2018-12-13T05:37:36.692Z,3.57
2018-12-13T05:38:36.707Z,3.54
2018-12-13T05:39:36.716Z,3.52
2018-12-13T05:40:36.736Z,3.65
2018-12-13T05:41:36.751Z,3.55
2018-12-13T05:43:36.776Z,3.68
2018-12-13T05:44:36.793Z,3.55
2018-12-13T05:45:36.800Z,3.6
2018-12-13T05:46:36.815Z,3.62
2018-12-13T05:47:36.833Z,3.6
2018-12-13T05:48:36.843Z,3.62
2018-12-13T05:49:51.518Z,3.62
2018-12-13T05:50:36.874Z,3.6
2018-12-13T05:51:36.885Z,3.55
2018-12-13T05:52:36.897Z,3.61
2018-12-13T05:53:36.910Z,3.58
2018-12-13T05:54:36.926Z,3.51
2018-12-13T05:55:36.940Z,3.51
2018-12-13T05:56:36.951Z,3.55
2018-12-13T05:57:36.966Z,3.54
2018-12-13T05:59:36.995Z,3.52
2018-12-13T06:00:37.005Z,3.54
2018-12-13T06:01:37.070Z,3.5
2018-12-13T06:02:51.695Z,3.42
2018-12-13T06:03:37.048Z,3.51
2018-12-13T06:04:36.814Z,3.52
2018-12-13T06:05:37.075Z,3.48
2018-12-13T06:06:37.087Z,3.5
2018-12-13T06:07:37.104Z,3.42
2018-12-13T06:08:37.112Z,3.51
2018-12-13T06:09:37.135Z,3.52
2018-12-13T06:11:37.153Z,3.5
2018-12-13T06:12:37.168Z,3.48
2018-12-13T06:13:37.234Z,3.51
2018-12-13T06:16:51.886Z,3.36
2018-12-13T06:17:51.903Z,3.31
2018-12-13T06:18:37.252Z,3.31
2018-12-13T06:19:37.263Z,3.24
2018-12-13T06:20:37.280Z,3.33
2018-12-13T06:21:51.953Z,3.45
2018-12-13T06:22:51.978Z,3.43
2018-12-13T06:23:37.319Z,3.43
2018-12-13T06:24:37.464Z,3.4
2018-12-13T06:25:37.359Z,3.48
2018-12-13T06:27:52.040Z,3.5
2018-12-13T06:28:37.384Z,3.36
2018-12-13T06:29:48.789Z,3.4
2018-12-13T06:30:37.417Z,3.48
2018-12-13T06:31:37.471Z,3.35
2018-12-13T06:32:52.102Z,3.39
2018-12-13T06:33:37.458Z,3.42
2018-12-13T06:34:37.469Z,3.33
2018-12-13T06:35:37.480Z,3.33
2018-12-13T06:36:37.503Z,3.36
2018-12-13T06:37:52.170Z,3.47
2018-12-13T06:38:37.530Z,3.33
2018-12-13T06:39:37.537Z,3.43
2018-12-13T06:40:37.551Z,3.39
2018-12-13T06:41:37.562Z,3.43
2018-12-13T06:43:37.589Z,3.42
2018-12-13T06:44:37.608Z,3.35
2018-12-13T06:45:52.283Z,3.42
2018-12-13T06:46:37.632Z,3.32
2018-12-13T06:47:52.307Z,3.21
2018-12-13T06:48:37.657Z,3.2
2018-12-13T06:49:37.727Z,3.2
2018-12-13T06:50:37.692Z,3.14
2018-12-13T06:51:37.703Z,3.15
2018-12-13T06:52:37.712Z,3.28
2018-12-13T06:53:52.387Z,3.13
2018-12-13T06:54:37.743Z,3.14
2018-12-13T06:55:37.511Z,3.06
2018-12-13T06:56:37.766Z,3.2
2018-12-13T06:57:37.784Z,3.05
2018-12-13T06:58:37.794Z,3.11
2018-12-13T06:59:37.807Z,3.18
2018-12-13T07:00:37.823Z,3.17
2018-12-13T07:01:37.585Z,3.26
2018-12-13T07:02:52.511Z,3.26
2018-12-13T07:03:37.865Z,3.36
2018-12-13T07:04:52.536Z,3.33
2018-12-13T07:05:52.547Z,3.36
2018-12-13T07:06:37.907Z,3.36
2018-12-13T07:07:37.914Z,3.4
2018-12-13T07:08:37.925Z,3.36
2018-12-13T07:09:52.604Z,3.32
2018-12-13T07:10:37.953Z,3.33
2018-12-13T07:11:38.068Z,3.32
2018-12-13T07:12:37.984Z,3.21
2018-12-13T07:13:37.994Z,3.29
2018-12-13T07:14:38.009Z,3.33
2018-12-13T07:15:38.018Z,3.33
2018-12-13T07:16:38.032Z,3.32
2018-12-13T07:19:38.088Z,3.31
2018-12-13T07:20:52.751Z,3.42
2018-12-13T07:21:38.103Z,3.35
2018-12-13T07:22:38.182Z,3.32
2018-12-13T07:23:38.178Z,3.36
2018-12-13T07:24:52.811Z,3.51
2018-12-13T07:25:38.165Z,3.55
2018-12-13T07:26:38.170Z,3.68
2018-12-13T07:27:37.936Z,3.58
2018-12-13T07:28:38.197Z,3.55
2018-12-13T07:29:38.214Z,3.6
2018-12-13T07:31:38.241Z,3.66
2018-12-13T07:32:38.251Z,3.54
2018-12-13T07:33:38.287Z,3.48
2018-12-13T07:34:38.289Z,3.45
2018-12-13T07:35:38.491Z,3.5
2018-12-13T07:36:38.404Z,3.57
2018-12-13T07:37:38.317Z,3.6
2018-12-13T07:38:38.338Z,3.6
2018-12-13T07:39:38.345Z,3.4
2018-12-13T07:40:38.362Z,3.51
2018-12-13T07:41:38.423Z,3.47
2018-12-13T07:42:38.386Z,3.47
2018-12-13T07:43:38.400Z,3.35
2018-12-13T07:44:38.414Z,3.24
2018-12-13T07:46:38.442Z,3.33
2018-12-13T07:47:38.455Z,3.4
2018-12-13T07:48:56.312Z,3.42
2018-12-13T07:49:38.482Z,3.4
2018-12-13T07:50:38.494Z,3.33
2018-12-13T07:51:38.507Z,3.36
2018-12-13T07:52:53.184Z,3.26
2018-12-13T07:53:53.196Z,3.2
2018-12-13T07:55:38.574Z,3.05
2018-12-13T07:56:53.238Z,3.1
2018-12-13T07:57:38.346Z,3.2
2018-12-13T07:58:38.608Z,3.14
2018-12-13T07:59:38.618Z,3.18
2018-12-13T08:00:38.633Z,3.11
2018-12-13T08:01:38.666Z,3.06
2018-12-13T08:03:38.721Z,3.14
2018-12-13T08:05:38.702Z,3.03
2018-12-13T08:06:53.374Z,3.17
2018-12-13T08:07:40.267Z,3.17
2018-12-13T08:08:38.739Z,3.15
2018-12-13T08:09:38.760Z,3.13
2018-12-13T08:10:38.817Z,3.06
2018-12-13T08:11:38.826Z,3.03
2018-12-13T08:12:53.453Z,3.03
2018-12-13T08:13:38.814Z,3.02
2018-12-13T08:15:38.832Z,3.05
2018-12-13T08:16:38.928Z,3.11
2018-12-13T08:17:38.891Z,3.18
2018-12-13T08:18:38.905Z,3.08
2018-12-13T08:19:38.919Z,3.2
2018-12-13T08:20:38.930Z,3.17
2018-12-13T08:21:39.061Z,3.2
2018-12-13T08:22:38.969Z,3.21
2018-12-13T08:23:38.973Z,3.24
2018-12-13T08:24:53.634Z,3.31
2018-12-13T08:26:53.660Z,3.14
2018-12-13T08:27:53.671Z,3.15
2018-12-13T08:28:53.689Z,3.21
2018-12-13T08:29:39.101Z,3.15
2018-12-13T08:30:39.067Z,3.08
2018-12-13T08:31:39.081Z,3.14
2018-12-13T08:32:39.098Z,3.24
2018-12-13T08:34:39.121Z,3.18
2018-12-13T08:35:39.134Z,3.31
2018-12-13T08:36:39.151Z,3.26
2018-12-13T08:37:39.160Z,3.4
2018-12-13T08:39:39.184Z,3.35
2018-12-13T08:40:39.265Z,3.48
2018-12-13T08:41:39.316Z,3.43
2018-12-13T08:42:39.228Z,3.51
2018-12-13T08:43:39.238Z,3.6
2018-12-13T08:44:53.952Z,3.61
2018-12-13T08:45:39.278Z,3.55
2018-12-13T08:46:41.535Z,3.52
2018-12-13T08:47:39.297Z,3.52
2018-12-13T08:48:39.307Z,3.6
2018-12-13T08:49:39.325Z,3.54
2018-12-13T08:50:39.334Z,3.36
2018-12-13T08:51:39.352Z,3.33
2018-12-13T08:52:39.364Z,3.24
2018-12-13T08:53:39.381Z,3.26
2018-12-13T08:54:39.393Z,3.21
2018-12-13T08:55:39.405Z,3.35
2018-12-13T08:56:39.419Z,3.33
2018-12-13T08:58:39.443Z,3.43
2018-12-13T08:59:54.108Z,3.51
2018-12-13T09:00:39.472Z,3.48
2018-12-13T09:01:39.486Z,3.51
2018-12-13T09:02:39.504Z,3.48
2018-12-13T09:03:39.517Z,3.51
2018-12-13T09:04:39.586Z,3.62
2018-12-13T09:05:39.544Z,3.61
2018-12-13T09:06:39.566Z,3.68
2018-12-13T09:07:39.566Z,3.75
2018-12-13T09:08:39.584Z,3.66
2018-12-13T09:09:39.648Z,3.62
2018-12-13T09:10:39.612Z,3.73
2018-12-13T09:11:39.626Z,3.7
2018-12-13T09:12:39.695Z,3.72
2018-12-13T09:13:39.653Z,3.78
2018-12-13T09:14:39.665Z,3.79
2018-12-13T09:15:39.678Z,3.69
2018-12-13T09:16:39.701Z,3.86
2018-12-13T09:17:39.704Z,3.75
2018-12-13T09:18:39.719Z,3.76
2018-12-13T09:19:39.741Z,3.88
2018-12-13T09:20:39.746Z,3.83
2018-12-13T09:21:39.760Z,3.75
2018-12-13T09:22:39.779Z,3.69
2018-12-13T09:23:39.789Z,3.62
2018-12-13T09:24:39.802Z,3.61
2018-12-13T09:25:39.815Z,3.72
2018-12-13T09:26:39.831Z,3.58
2018-12-13T09:27:39.843Z,3.72
2018-12-13T09:28:54.559Z,3.72
2018-12-13T09:29:39.871Z,3.87
2018-12-13T09:30:39.955Z,3.83
2018-12-13T09:31:54.551Z,3.84
2018-12-13T09:32:39.910Z,3.88
2018-12-13T09:33:39.927Z,3.83
2018-12-13T09:34:39.940Z,3.91
2018-12-13T09:35:39.953Z,3.83
2018-12-13T09:36:39.965Z,3.84
2018-12-13T09:37:39.728Z,3.9
2018-12-13T09:38:44.675Z,3.9
2018-12-13T09:39:40.013Z,3.91
2018-12-13T09:40:40.021Z,3.88
2018-12-13T09:41:40.039Z,3.9
2018-12-13T09:42:40.048Z,3.93
2018-12-13T09:43:54.712Z,4.04
2018-12-13T09:45:54.738Z,4.06
2018-12-13T09:46:40.118Z,4.08
2018-12-13T09:47:54.769Z,4.16
2018-12-13T09:48:40.133Z,4.2
2018-12-13T09:49:40.152Z,4.16
2018-12-13T09:50:40.162Z,4.24
2018-12-13T09:51:54.831Z,4.26
2018-12-13T09:52:40.243Z,4.24
2018-12-13T09:53:54.858Z,4.32
2018-12-13T09:54:40.217Z,4.36
2018-12-13T09:55:40.231Z,4.36
2018-12-13T09:56:40.245Z,4.29
2018-12-13T09:57:40.270Z,4.34
2018-12-13T09:58:54.923Z,4.33
2018-12-13T09:59:40.288Z,4.3
2018-12-13T10:00:40.302Z,4.23
2018-12-13T10:01:40.315Z,4.18
2018-12-13T10:02:40.331Z,4.11
2018-12-13T10:03:54.988Z,4.26
2018-12-13T10:04:40.364Z,4.18
2018-12-13T10:05:40.377Z,4.32
2018-12-13T10:06:40.385Z,4.2
2018-12-13T10:07:40.395Z,4.37
2018-12-13T10:08:46.109Z,4.36
2018-12-13T10:09:40.428Z,4.34
2018-12-13T10:10:40.444Z,4.37
2018-12-13T10:11:40.454Z,4.37
2018-12-13T10:12:40.471Z,4.37
2018-12-13T10:15:40.517Z,4.27
2018-12-13T10:16:40.544Z,4.2
2018-12-13T10:17:40.545Z,4.12
2018-12-13T10:18:55.199Z,4.22
2018-12-13T10:19:55.216Z,4.23
2018-12-13T10:20:40.580Z,4.26
2018-12-13T10:21:40.594Z,4.12
2018-12-13T10:22:40.613Z,4.05
2018-12-13T10:23:40.650Z,4.06
2018-12-13T10:24:40.647Z,4.04
2018-12-13T10:25:40.652Z,4.02
2018-12-13T10:26:40.667Z,4.2
2018-12-13T10:27:40.682Z,4.22
2018-12-13T10:28:40.700Z,4.22
2018-12-13T10:29:40.711Z,4.22
2018-12-13T10:30:40.738Z,4.14
2018-12-13T10:31:40.739Z,4.09
2018-12-13T10:32:40.759Z,4.23
2018-12-13T10:33:40.773Z,4.23
2018-12-13T10:34:55.478Z,4.18
2018-12-13T10:35:40.844Z,4.16
2018-12-13T10:36:40.808Z,4.22
2018-12-13T10:37:40.813Z,4.16
2018-12-13T10:38:40.826Z,4.12
2018-12-13T10:39:40.850Z,4.23
2018-12-13T10:40:41.015Z,4.26
2018-12-13T10:41:40.867Z,4.27
2018-12-13T10:42:40.888Z,4.23
2018-12-13T10:43:55.603Z,4.37
2018-12-13T10:44:40.915Z,4.36
2018-12-13T10:45:40.934Z,4.48
2018-12-13T10:46:40.969Z,4.41
2018-12-13T10:47:40.958Z,4.4
2018-12-13T10:48:40.973Z,4.51
2018-12-13T10:49:41.040Z,4.5
2018-12-13T10:51:41.007Z,4.67
2018-12-13T10:52:41.038Z,4.62
2018-12-13T10:53:41.063Z,4.63
2018-12-13T10:54:41.062Z,4.59
2018-12-13T10:55:41.079Z,4.66
2018-12-13T10:57:41.109Z,4.5
2018-12-13T10:58:41.169Z,4.54
2018-12-13T10:59:41.135Z,4.51
2018-12-13T11:00:41.146Z,4.3
2018-12-13T11:01:41.162Z,4.37
2018-12-13T11:02:41.179Z,4.3
2018-12-13T11:03:41.190Z,4.33
2018-12-13T11:04:41.202Z,4.33
2018-12-13T11:05:41.335Z,4.45
2018-12-13T11:06:55.876Z,4.52
2018-12-13T11:07:41.244Z,4.52
2018-12-13T11:08:41.309Z,4.58
2018-12-13T11:09:41.374Z,4.44
2018-12-13T11:10:41.285Z,4.33
2018-12-13T11:11:41.351Z,4.4
2018-12-13T11:12:41.357Z,4.37
2018-12-13T11:13:41.332Z,4.42
2018-12-13T11:14:41.443Z,4.34
2018-12-13T11:15:42.360Z,4.34
2018-12-13T11:16:41.375Z,4.37
2018-12-13T11:17:41.390Z,4.23
2018-12-13T11:18:41.405Z,4.2
2018-12-13T11:19:56.064Z,4.23
2018-12-13T11:20:41.430Z,4.15
2018-12-13T11:21:41.454Z,4.18
2018-12-13T11:22:56.102Z,4.15
2018-12-13T11:23:41.474Z,4.18
2018-12-13T11:24:41.494Z,4.3
2018-12-13T11:25:41.500Z,4.27
2018-12-13T11:26:41.514Z,4.22
2018-12-13T11:27:41.529Z,4.2
2018-12-13T11:28:41.542Z,4.2
2018-12-13T11:29:41.554Z,4.06
2018-12-13T11:30:41.570Z,4.11
2018-12-13T11:31:41.588Z,3.97
2018-12-13T11:32:41.601Z,4.08
2018-12-13T11:33:41.610Z,4.05
2018-12-13T11:34:41.676Z,3.96
2018-12-13T11:35:41.635Z,4
2018-12-13T11:36:41.650Z,3.87
2018-12-13T11:37:41.668Z,3.9
2018-12-13T11:38:56.327Z,4.05
2018-12-13T11:39:41.698Z,4.15
2018-12-13T11:40:41.763Z,4
2018-12-13T11:41:41.723Z,4
2018-12-13T11:42:41.735Z,3.96
2018-12-13T11:43:41.749Z,3.9
2018-12-13T11:44:41.775Z,3.91
2018-12-13T11:45:41.837Z,3.88
2018-12-13T11:46:41.804Z,3.83
2018-12-13T11:47:41.818Z,4
2018-12-13T11:50:41.920Z,4.02
2018-12-13T11:51:56.514Z,4.05
2018-12-13T11:52:41.905Z,4
2018-12-13T11:53:41.892Z,4
2018-12-13T11:54:56.551Z,4
2018-12-13T11:55:41.934Z,3.9
2018-12-13T11:56:41.935Z,3.98
2018-12-13T11:57:41.948Z,4.11
2018-12-13T11:58:41.961Z,4.04
2018-12-13T11:59:41.976Z,4.05
2018-12-13T12:00:41.990Z,4
2018-12-13T12:01:42.001Z,3.88
2018-12-13T12:02:42.024Z,3.97
2018-12-13T12:03:42.028Z,4
2018-12-13T12:05:42.070Z,4
2018-12-13T12:06:42.079Z,4
2018-12-13T12:07:42.187Z,3.9
2018-12-13T12:08:42.105Z,3.93
2018-12-13T12:09:56.782Z,3.86
2018-12-13T12:10:42.133Z,3.91
2018-12-13T12:11:42.140Z,3.84
2018-12-13T12:12:42.158Z,3.86
2018-12-13T12:13:42.171Z,3.9
2018-12-13T12:14:42.186Z,3.93
2018-12-13T12:15:42.197Z,3.87
2018-12-13T12:16:42.221Z,4
2018-12-13T12:17:42.276Z,3.98
2018-12-13T12:18:42.236Z,3.98
2018-12-13T12:20:56.969Z,3.98
2018-12-13T12:21:42.283Z,4.09
2018-12-13T12:22:42.296Z,4.06
2018-12-13T12:23:42.312Z,4.04
2018-12-13T12:24:42.324Z,4.05
2018-12-13T12:25:42.339Z,3.97
2018-12-13T12:26:42.395Z,3.98
2018-12-13T12:27:42.364Z,4.04
2018-12-13T12:28:42.380Z,4
2018-12-13T12:29:42.441Z,4.05
2018-12-13T12:30:42.406Z,3.88
2018-12-13T12:31:42.429Z,3.97
2018-12-13T12:32:42.434Z,3.98
2018-12-13T12:33:42.448Z,3.97
2018-12-13T12:34:42.472Z,3.87
2018-12-13T12:35:42.581Z,3.87
2018-12-13T12:36:57.140Z,3.88
2018-12-13T12:37:42.514Z,3.88
2018-12-13T12:38:57.265Z,3.98
2018-12-13T12:39:57.186Z,3.98
2018-12-13T12:41:57.206Z,4.04
2018-12-13T12:42:42.575Z,4.04
2018-12-13T12:43:42.585Z,4.14
2018-12-13T12:44:42.602Z,4.14
2018-12-13T12:45:42.615Z,4.08
2018-12-13T12:46:42.628Z,4.26
2018-12-13T12:47:42.645Z,4.12
2018-12-13T12:48:42.654Z,4.11
2018-12-13T12:49:42.772Z,4.09
2018-12-13T12:50:42.770Z,4.15
2018-12-13T12:51:42.709Z,4.05
2018-12-13T12:52:42.711Z,4.11
2018-12-13T12:53:42.724Z,4.05
2018-12-13T12:54:42.740Z,4.12
2018-12-13T12:56:42.515Z,4.14
2018-12-13T12:58:42.895Z,4.09
2018-12-13T12:59:42.810Z,4.11
2018-12-13T13:00:42.822Z,4.16
2018-12-13T13:01:42.834Z,4.16
2018-12-13T13:02:42.848Z,4.15
2018-12-13T13:03:42.863Z,4.29
2018-12-13T13:04:42.879Z,4.29
2018-12-13T13:05:42.904Z,4.24
2018-12-13T13:06:42.905Z,4.22
2018-12-13T13:07:42.930Z,4.27
2018-12-13T13:08:42.989Z,4.27
2018-12-13T13:09:43.004Z,4.24
2018-12-13T13:10:42.973Z,4.05
2018-12-13T13:11:42.979Z,4.15
2018-12-13T13:12:43.015Z,4.09
2018-12-13T13:13:57.649Z,4.06
2018-12-13T13:14:43.024Z,4.05
2018-12-13T13:15:43.031Z,4.18
2018-12-13T13:16:43.051Z,4.15
2018-12-13T13:17:43.055Z,4.2
2018-12-13T13:18:43.697Z,4.16
2018-12-13T13:19:43.086Z,4.29
2018-12-13T13:20:43.102Z,4.29
2018-12-13T13:21:43.120Z,4.23
2018-12-13T13:22:43.136Z,4.23
2018-12-13T13:23:43.147Z,4.22
2018-12-13T13:24:43.168Z,4.26
2018-12-13T13:25:43.168Z,4.15
2018-12-13T13:26:43.243Z,4.06
2018-12-13T13:27:43.202Z,4.09
2018-12-13T13:28:43.211Z,4.2
2018-12-13T13:29:57.879Z,4.22
2018-12-13T13:30:43.241Z,4.23
2018-12-13T13:31:43.357Z,4.2
2018-12-13T13:32:43.272Z,4.24
2018-12-13T13:33:43.286Z,4.29
2018-12-13T13:34:43.303Z,4.23
2018-12-13T13:35:43.308Z,4.18
2018-12-13T13:36:43.323Z,4.2
2018-12-13T13:38:43.352Z,4.2
2018-12-13T13:40:43.382Z,4.16
2018-12-13T13:41:58.146Z,4.09
2018-12-13T13:42:58.056Z,4.14
2018-12-13T13:43:43.421Z,4.12
2018-12-13T13:44:58.085Z,4.11
2018-12-13T13:45:43.448Z,4.15
2018-12-13T13:46:43.468Z,4.11
2018-12-13T13:47:43.482Z,4.04
2018-12-13T13:48:43.498Z,4.06
2018-12-13T13:49:43.505Z,4.02
2018-12-13T13:50:43.572Z,4.06
2018-12-13T13:51:43.537Z,4.04
2018-12-13T13:52:43.548Z,4.04
2018-12-13T13:53:43.561Z,3.98
2018-12-13T13:54:43.573Z,4.04
2018-12-13T13:55:43.621Z,4.11
2018-12-13T13:56:43.604Z,4.12
2018-12-13T13:57:43.623Z,4.14
2018-12-13T13:58:58.278Z,4.12
2018-12-13T13:59:43.696Z,4.26
2018-12-13T14:00:43.656Z,4.15
2018-12-13T14:01:43.773Z,4.18
2018-12-13T14:02:43.690Z,4.24
2018-12-13T14:03:43.700Z,4.24
2018-12-13T14:04:43.721Z,4.26
2018-12-13T14:06:43.745Z,4.22
2018-12-13T14:07:43.760Z,4.22
2018-12-13T14:08:43.769Z,4.22
2018-12-13T14:09:43.784Z,4.26
2018-12-13T14:10:43.799Z,4.12
2018-12-13T14:11:43.820Z,4.08
2018-12-13T14:12:43.840Z,4.08
2018-12-13T14:13:43.912Z,4.18
2018-12-13T14:14:43.856Z,4.24
2018-12-13T14:15:43.870Z,4.22
2018-12-13T14:16:58.526Z,4.29
2018-12-13T14:17:43.915Z,4.23
2018-12-13T14:18:43.926Z,4.24
2018-12-13T14:19:43.931Z,4.18
2018-12-13T14:20:43.938Z,4.18